sensor_id;sensor_type;location;lat;lon;timestamp;P1;durP1;ratioP1;P2;durP2;ratioP2
22622;SDS011;11478;51.094;7.030;2022-07-29T06:40:31;6.57;;;2.00;;
22622;SDS011;11478;51.094;7.030;2022-07-29T06:43:17;3.50;;;1.70;;
22622;SDS011;11478;51.094;7.030;2022-07-29T06:45:43;7.25;;;2.05;;
22622;SDS011;11478;51.094;7.030;2022-07-29T06:48:12;3.53;;;1.98;;
22622;SDS011;11478;51.094;7.030;2022-07-29T06:50:38;4.47;;;2.15;;
22622;SDS011;11478;51.094;7.030;2022-07-29T06:53:05;8.20;;;2.22;;
22622;SDS011;11478;51.094;7.030;2022-07-29T06:55:31;5.13;;;2.05;;
22622;SDS011;11478;51.094;7.030;2022-07-29T07:00:31;5.40;;;2.17;;
22622;SDS011;11478;51.094;7.030;2022-07-29T07:02:57;4.05;;;1.63;;
22622;SDS011;11478;51.094;7.030;2022-07-29T07:05:23;6.53;;;1.75;;
22622;SDS011;11478;51.094;7.030;2022-07-29T07:08:06;5.28;;;1.50;;
22622;SDS011;11478;51.094;7.030;2022-07-29T07:13:04;5.93;;;2.22;;
22622;SDS011;11478;51.094;7.030;2022-07-29T07:15:31;5.95;;;1.98;;
22622;SDS011;11478;51.094;7.030;2022-07-29T07:17:59;4.47;;;1.98;;
22622;SDS011;11478;51.094;7.030;2022-07-29T07:20:28;5.38;;;1.90;;
22622;SDS011;11478;51.094;7.030;2022-07-29T07:29:33;4.53;;;1.90;;
22622;SDS011;11478;51.094;7.030;2022-07-29T07:32:07;5.82;;;2.28;;
22622;SDS011;11478;51.094;7.030;2022-07-29T07:34:33;5.72;;;2.30;;
22622;SDS011;11478;51.094;7.030;2022-07-29T07:36:59;3.58;;;2.10;;
22622;SDS011;11478;51.094;7.030;2022-07-29T07:39:25;5.15;;;2.17;;
22622;SDS011;11478;51.094;7.030;2022-07-29T07:41:51;4.45;;;2.13;;
22622;SDS011;11478;51.094;7.030;2022-07-29T07:44:17;5.03;;;2.30;;
22622;SDS011;11478;51.094;7.030;2022-07-29T07:46:45;5.50;;;2.25;;
22622;SDS011;11478;51.094;7.030;2022-07-29T07:49:11;7.55;;;2.50;;
22622;SDS011;11478;51.094;7.030;2022-07-29T07:51:46;4.90;;;2.47;;
22622;SDS011;11478;51.094;7.030;2022-07-29T07:54:12;7.07;;;2.55;;
22622;SDS011;11478;51.094;7.030;2022-07-29T07:56:39;7.70;;;3.20;;
22622;SDS011;11478;51.094;7.030;2022-07-29T07:59:04;9.88;;;3.15;;
22622;SDS011;11478;51.094;7.030;2022-07-29T08:01:30;9.43;;;2.95;;
22622;SDS011;11478;51.094;7.030;2022-07-29T08:03:56;6.97;;;2.85;;
22622;SDS011;11478;51.094;7.030;2022-07-29T08:06:22;10.50;;;2.92;;
22622;SDS011;11478;51.094;7.030;2022-07-29T08:08:50;6.38;;;2.72;;
22622;SDS011;11478;51.094;7.030;2022-07-29T08:11:16;9.25;;;2.92;;
22622;SDS011;11478;51.094;7.030;2022-07-29T08:13:42;4.88;;;2.65;;
22622;SDS011;11478;51.094;7.030;2022-07-29T08:16:09;7.22;;;3.17;;
22622;SDS011;11478;51.094;7.030;2022-07-29T08:18:38;7.03;;;2.55;;
22622;SDS011;11478;51.094;7.030;2022-07-29T08:21:18;10.52;;;3.00;;
22622;SDS011;11478;51.094;7.030;2022-07-29T08:23:44;5.90;;;2.83;;
22622;SDS011;11478;51.094;7.030;2022-07-29T08:26:44;6.82;;;2.78;;
22622;SDS011;11478;51.094;7.030;2022-07-29T08:29:10;6.53;;;2.58;;
22622;SDS011;11478;51.094;7.030;2022-07-29T08:31:36;8.57;;;3.00;;
22622;SDS011;11478;51.094;7.030;2022-07-29T08:34:03;5.68;;;2.67;;
22622;SDS011;11478;51.094;7.030;2022-07-29T08:36:32;8.35;;;2.63;;
22622;SDS011;11478;51.094;7.030;2022-07-29T08:38:58;7.30;;;2.67;;
22622;SDS011;11478;51.094;7.030;2022-07-29T08:41:29;9.57;;;3.00;;
22622;SDS011;11478;51.094;7.030;2022-07-29T08:43:56;8.40;;;3.13;;
22622;SDS011;11478;51.094;7.030;2022-07-29T08:46:24;7.50;;;2.70;;
22622;SDS011;11478;51.094;7.030;2022-07-29T08:48:50;9.05;;;3.28;;
22622;SDS011;11478;51.094;7.030;2022-07-29T08:51:19;10.98;;;3.45;;
22622;SDS011;11478;51.094;7.030;2022-07-29T08:53:47;8.75;;;3.13;;
22622;SDS011;11478;51.094;7.030;2022-07-29T08:58:44;7.00;;;3.08;;
22622;SDS011;11478;51.094;7.030;2022-07-29T09:01:22;7.95;;;3.00;;
22622;SDS011;11478;51.094;7.030;2022-07-29T09:03:50;7.78;;;2.88;;
22622;SDS011;11478;51.094;7.030;2022-07-29T09:06:29;6.68;;;3.10;;
22622;SDS011;11478;51.094;7.030;2022-07-29T09:08:58;5.57;;;2.90;;
22622;SDS011;11478;51.094;7.030;2022-07-29T09:11:25;4.63;;;3.20;;
22622;SDS011;11478;51.094;7.030;2022-07-29T09:13:52;9.35;;;3.10;;
22622;SDS011;11478;51.094;7.030;2022-07-29T09:16:19;6.88;;;3.10;;
22622;SDS011;11478;51.094;7.030;2022-07-29T09:18:45;7.10;;;3.50;;
22622;SDS011;11478;51.094;7.030;2022-07-29T09:21:13;5.05;;;2.90;;
22622;SDS011;11478;51.094;7.030;2022-07-29T09:24:11;7.63;;;2.83;;
22622;SDS011;11478;51.094;7.030;2022-07-29T09:26:42;6.47;;;2.70;;
22622;SDS011;11478;51.094;7.030;2022-07-29T09:29:27;5.55;;;2.53;;
22622;SDS011;11478;51.094;7.030;2022-07-29T09:31:53;6.35;;;2.63;;
22622;SDS011;11478;51.094;7.030;2022-07-29T09:34:26;7.40;;;2.70;;
22622;SDS011;11478;51.094;7.030;2022-07-29T09:36:53;5.15;;;2.75;;
22622;SDS011;11478;51.094;7.030;2022-07-29T09:39:33;5.10;;;2.53;;
22622;SDS011;11478;51.094;7.030;2022-07-29T09:42:03;8.20;;;2.67;;
22622;SDS011;11478;51.094;7.030;2022-07-29T09:44:44;4.05;;;2.50;;
22622;SDS011;11478;51.094;7.030;2022-07-29T09:47:15;6.28;;;2.45;;
22622;SDS011;11478;51.094;7.030;2022-07-29T09:49:55;15.35;;;3.08;;
22622;SDS011;11478;51.094;7.030;2022-07-29T09:52:25;7.18;;;2.72;;
22622;SDS011;11478;51.094;7.030;2022-07-29T09:54:53;5.63;;;3.13;;
22622;SDS011;11478;51.094;7.030;2022-07-29T09:57:29;7.63;;;3.25;;
22622;SDS011;11478;51.094;7.030;2022-07-29T10:00:00;7.50;;;3.03;;
22622;SDS011;11478;51.094;7.030;2022-07-29T10:02:30;5.68;;;2.78;;
22622;SDS011;11478;51.094;7.030;2022-07-29T10:04:57;5.28;;;2.70;;
22622;SDS011;11478;51.094;7.030;2022-07-29T10:07:24;8.07;;;3.20;;
22622;SDS011;11478;51.094;7.030;2022-07-29T10:09:59;9.98;;;2.92;;
22622;SDS011;11478;51.094;7.030;2022-07-29T10:12:27;6.28;;;2.78;;
22622;SDS011;11478;51.094;7.030;2022-07-29T10:14:53;7.70;;;2.88;;
22622;SDS011;11478;51.094;7.030;2022-07-29T10:17:20;11.07;;;3.30;;
22622;SDS011;11478;51.094;7.030;2022-07-29T10:19:46;7.57;;;3.13;;
22622;SDS011;11478;51.094;7.030;2022-07-29T10:22:15;9.85;;;2.80;;
22622;SDS011;11478;51.094;7.030;2022-07-29T10:24:41;8.02;;;2.72;;
22622;SDS011;11478;51.094;7.030;2022-07-29T10:27:08;12.63;;;4.43;;
22622;SDS011;11478;51.094;7.030;2022-07-29T10:29:34;12.25;;;3.65;;
22622;SDS011;11478;51.094;7.030;2022-07-29T10:32:11;12.20;;;3.97;;
22622;SDS011;11478;51.094;7.030;2022-07-29T10:43:51;8.40;;;3.85;;
22622;SDS011;11478;51.094;7.030;2022-07-29T10:46:19;10.55;;;3.85;;
22622;SDS011;11478;51.094;7.030;2022-07-29T10:57:26;20.02;;;4.57;;
22622;SDS011;11478;51.094;7.030;2022-07-29T11:05:08;12.75;;;3.90;;
22622;SDS011;11478;51.094;7.030;2022-07-29T11:07:39;10.77;;;3.55;;
22622;SDS011;11478;51.094;7.030;2022-07-29T11:10:26;10.57;;;4.53;;
22622;SDS011;11478;51.094;7.030;2022-07-29T11:12:51;13.02;;;4.05;;
22622;SDS011;11478;51.094;7.030;2022-07-29T11:15:24;8.00;;;4.00;;
22622;SDS011;11478;51.094;7.030;2022-07-29T11:23:26;9.75;;;3.80;;
22622;SDS011;11478;51.094;7.030;2022-07-29T11:28:50;8.73;;;3.50;;
22622;SDS011;11478;51.094;7.030;2022-07-29T11:31:19;7.28;;;3.08;;
22622;SDS011;11478;51.094;7.030;2022-07-29T11:47:28;7.40;;;3.03;;
22622;SDS011;11478;51.094;7.030;2022-07-29T11:49:55;6.88;;;2.90;;
22622;SDS011;11478;51.094;7.030;2022-07-29T11:55:21;9.73;;;2.92;;
22622;SDS011;11478;51.094;7.030;2022-07-29T11:58:06;9.32;;;2.78;;
22622;SDS011;11478;51.094;7.030;2022-07-29T12:03:13;9.27;;;2.78;;
22622;SDS011;11478;51.094;7.030;2022-07-29T12:05:55;8.75;;;2.75;;
22622;SDS011;11478;51.094;7.030;2022-07-29T12:10:56;5.00;;;2.40;;
22622;SDS011;11478;51.094;7.030;2022-07-29T12:16:10;8.45;;;2.15;;
22622;SDS011;11478;51.094;7.030;2022-07-29T12:18:36;8.67;;;2.77;;
22622;SDS011;11478;51.094;7.030;2022-07-29T12:23:34;7.20;;;2.75;;
22622;SDS011;11478;51.094;7.030;2022-07-29T12:57:20;7.22;;;2.70;;
22622;SDS011;11478;51.094;7.030;2022-07-29T13:02:38;6.65;;;2.20;;
22622;SDS011;11478;51.094;7.030;2022-07-29T13:07:45;7.20;;;2.10;;
22622;SDS011;11478;51.094;7.030;2022-07-29T13:10:21;14.27;;;2.75;;
22622;SDS011;11478;51.094;7.030;2022-07-29T13:39:10;6.13;;;2.25;;
22622;SDS011;11478;51.094;7.030;2022-07-29T13:41:54;6.78;;;2.10;;
22622;SDS011;11478;51.094;7.030;2022-07-29T13:47:03;4.28;;;2.00;;
22622;SDS011;11478;51.094;7.030;2022-07-29T13:49:33;7.55;;;2.10;;
22622;SDS011;11478;51.094;7.030;2022-07-29T13:52:09;4.47;;;2.53;;
22622;SDS011;11478;51.094;7.030;2022-07-29T13:54:40;5.10;;;2.03;;
22622;SDS011;11478;51.094;7.030;2022-07-29T13:57:08;4.72;;;2.08;;
22622;SDS011;11478;51.094;7.030;2022-07-29T13:59:42;5.07;;;2.00;;
22622;SDS011;11478;51.094;7.030;2022-07-29T14:02:12;7.03;;;2.35;;
22622;SDS011;11478;51.094;7.030;2022-07-29T14:04:38;8.95;;;2.90;;
22622;SDS011;11478;51.094;7.030;2022-07-29T14:07:06;8.65;;;2.50;;
22622;SDS011;11478;51.094;7.030;2022-07-29T14:09:32;5.35;;;2.97;;
22622;SDS011;11478;51.094;7.030;2022-07-29T14:22:53;6.13;;;2.58;;
22622;SDS011;11478;51.094;7.030;2022-07-29T14:25:23;8.98;;;2.75;;
22622;SDS011;11478;51.094;7.030;2022-07-29T14:27:56;11.45;;;2.47;;
22622;SDS011;11478;51.094;7.030;2022-07-29T14:35:34;6.95;;;2.45;;
22622;SDS011;11478;51.094;7.030;2022-07-29T14:43:12;7.43;;;2.40;;
22622;SDS011;11478;51.094;7.030;2022-07-29T14:46:02;5.60;;;2.38;;
22622;SDS011;11478;51.094;7.030;2022-07-29T14:48:31;5.50;;;2.22;;
22622;SDS011;11478;51.094;7.030;2022-07-29T14:51:00;8.07;;;2.42;;
22622;SDS011;11478;51.094;7.030;2022-07-29T14:53:26;5.88;;;2.40;;
22622;SDS011;11478;51.094;7.030;2022-07-29T14:55:52;6.68;;;2.28;;
22622;SDS011;11478;51.094;7.030;2022-07-29T14:58:20;7.72;;;2.70;;
22622;SDS011;11478;51.094;7.030;2022-07-29T15:08:45;6.50;;;2.80;;
22622;SDS011;11478;51.094;7.030;2022-07-29T15:11:11;8.20;;;2.50;;
22622;SDS011;11478;51.094;7.030;2022-07-29T15:13:37;8.45;;;2.50;;
22622;SDS011;11478;51.094;7.030;2022-07-29T15:26:35;5.30;;;2.40;;
22622;SDS011;11478;51.094;7.030;2022-07-29T15:29:03;5.95;;;2.28;;
22622;SDS011;11478;51.094;7.030;2022-07-29T15:31:29;8.25;;;2.75;;
22622;SDS011;11478;51.094;7.030;2022-07-29T15:33:57;13.85;;;2.45;;
22622;SDS011;11478;51.094;7.030;2022-07-29T15:36:25;5.13;;;2.70;;
22622;SDS011;11478;51.094;7.030;2022-07-29T15:44:23;5.97;;;2.28;;
22622;SDS011;11478;51.094;7.030;2022-07-29T15:46:51;8.77;;;2.65;;
22622;SDS011;11478;51.094;7.030;2022-07-29T15:49:38;4.95;;;2.10;;
22622;SDS011;11478;51.094;7.030;2022-07-29T15:54:39;7.60;;;2.22;;
22622;SDS011;11478;51.094;7.030;2022-07-29T15:57:16;6.32;;;2.00;;
22622;SDS011;11478;51.094;7.030;2022-07-29T16:02:22;3.65;;;2.05;;
22622;SDS011;11478;51.094;7.030;2022-07-29T16:17:46;4.75;;;2.30;;
22622;SDS011;11478;51.094;7.030;2022-07-29T16:20:17;7.88;;;2.50;;
22622;SDS011;11478;51.094;7.030;2022-07-29T16:22:47;5.18;;;2.45;;
22622;SDS011;11478;51.094;7.030;2022-07-29T16:25:20;6.03;;;2.40;;
22622;SDS011;11478;51.094;7.030;2022-07-29T16:27:48;7.60;;;2.88;;
22622;SDS011;11478;51.094;7.030;2022-07-29T16:32:50;7.80;;;2.20;;
22622;SDS011;11478;51.094;7.030;2022-07-29T16:35:16;8.93;;;2.45;;
22622;SDS011;11478;51.094;7.030;2022-07-29T16:37:43;6.13;;;2.30;;
22622;SDS011;11478;51.094;7.030;2022-07-29T16:40:09;5.45;;;2.40;;
22622;SDS011;11478;51.094;7.030;2022-07-29T16:42:36;8.43;;;2.50;;
22622;SDS011;11478;51.094;7.030;2022-07-29T16:47:42;6.03;;;2.30;;
22622;SDS011;11478;51.094;7.030;2022-07-29T16:55:23;7.10;;;2.30;;
22622;SDS011;11478;51.094;7.030;2022-07-29T17:00:33;6.07;;;2.28;;
22622;SDS011;11478;51.094;7.030;2022-07-29T17:03:02;6.97;;;2.22;;
22622;SDS011;11478;51.094;7.030;2022-07-29T17:23:22;5.00;;;2.42;;
22622;SDS011;11478;51.094;7.030;2022-07-29T17:25:54;10.00;;;2.35;;
22622;SDS011;11478;51.094;7.030;2022-07-29T17:31:03;4.80;;;1.70;;
22622;SDS011;11478;51.094;7.030;2022-07-29T17:59:37;7.85;;;2.28;;
22622;SDS011;11478;51.094;7.030;2022-07-29T18:20:25;6.53;;;2.65;;
22622;SDS011;11478;51.094;7.030;2022-07-29T19:09:41;10.68;;;3.03;;
22622;SDS011;11478;51.094;7.030;2022-07-29T19:22:35;5.13;;;2.67;;
22622;SDS011;11478;51.094;7.030;2022-07-29T19:45:48;8.80;;;2.97;;
22622;SDS011;11478;51.094;7.030;2022-07-29T19:48:17;6.15;;;3.05;;
22622;SDS011;11478;51.094;7.030;2022-07-29T19:50:46;6.93;;;2.92;;
22622;SDS011;11478;51.094;7.030;2022-07-29T19:53:12;9.50;;;3.00;;
22622;SDS011;11478;51.094;7.030;2022-07-29T19:55:40;5.43;;;3.00;;
22622;SDS011;11478;51.094;7.030;2022-07-29T19:58:06;7.07;;;3.13;;
22622;SDS011;11478;51.094;7.030;2022-07-29T20:00:33;7.47;;;3.25;;
22622;SDS011;11478;51.094;7.030;2022-07-29T20:03:02;8.07;;;3.20;;
22622;SDS011;11478;51.094;7.030;2022-07-29T20:05:31;9.90;;;3.47;;
22622;SDS011;11478;51.094;7.030;2022-07-29T20:07:58;5.82;;;3.15;;
22622;SDS011;11478;51.094;7.030;2022-07-29T20:10:26;8.55;;;3.72;;
22622;SDS011;11478;51.094;7.030;2022-07-29T20:12:54;7.10;;;3.15;;
22622;SDS011;11478;51.094;7.030;2022-07-29T20:15:22;9.82;;;3.13;;
22622;SDS011;11478;51.094;7.030;2022-07-29T20:17:49;6.75;;;3.20;;
22622;SDS011;11478;51.094;7.030;2022-07-29T20:20:18;4.55;;;2.95;;
22622;SDS011;11478;51.094;7.030;2022-07-29T20:31:15;6.32;;;3.33;;
22622;SDS011;11478;51.094;7.030;2022-07-29T20:33:42;5.55;;;3.20;;
22622;SDS011;11478;51.094;7.030;2022-07-29T20:36:09;7.85;;;3.67;;
22622;SDS011;11478;51.094;7.030;2022-07-29T20:38:40;8.98;;;3.50;;
22622;SDS011;11478;51.094;7.030;2022-07-29T20:41:06;6.85;;;3.88;;
22622;SDS011;11478;51.094;7.030;2022-07-29T20:43:32;7.15;;;3.33;;
22622;SDS011;11478;51.094;7.030;2022-07-29T20:45:58;7.82;;;3.42;;
22622;SDS011;11478;51.094;7.030;2022-07-29T20:48:25;9.88;;;3.53;;
22622;SDS011;11478;51.094;7.030;2022-07-29T20:50:51;7.30;;;3.78;;
22622;SDS011;11478;51.094;7.030;2022-07-29T20:53:19;8.85;;;3.70;;
22622;SDS011;11478;51.094;7.030;2022-07-29T20:55:47;5.47;;;3.20;;
22622;SDS011;11478;51.094;7.030;2022-07-29T20:58:13;8.90;;;3.85;;
22622;SDS011;11478;51.094;7.030;2022-07-29T21:00:41;7.72;;;3.40;;
22622;SDS011;11478;51.094;7.030;2022-07-29T21:05:43;6.85;;;3.65;;
22622;SDS011;11478;51.094;7.030;2022-07-29T21:08:14;6.53;;;3.53;;
22622;SDS011;11478;51.094;7.030;2022-07-29T21:10:45;8.02;;;3.90;;
22622;SDS011;11478;51.094;7.030;2022-07-29T21:13:14;6.53;;;3.50;;
22622;SDS011;11478;51.094;7.030;2022-07-29T21:15:40;10.70;;;3.60;;
22622;SDS011;11478;51.094;7.030;2022-07-29T21:18:10;6.43;;;3.88;;
22622;SDS011;11478;51.094;7.030;2022-07-29T21:20:58;8.20;;;3.55;;
22622;SDS011;11478;51.094;7.030;2022-07-29T21:23:25;8.52;;;3.75;;
22622;SDS011;11478;51.094;7.030;2022-07-29T21:25:52;7.63;;;3.80;;
22622;SDS011;11478;51.094;7.030;2022-07-29T21:28:20;6.68;;;3.78;;
22622;SDS011;11478;51.094;7.030;2022-07-29T21:31:13;5.47;;;3.60;;
22622;SDS011;11478;51.094;7.030;2022-07-29T21:33:42;8.38;;;3.90;;
22622;SDS011;11478;51.094;7.030;2022-07-29T21:36:10;7.40;;;4.00;;
22622;SDS011;11478;51.094;7.030;2022-07-29T21:38:43;4.90;;;3.85;;
22622;SDS011;11478;51.094;7.030;2022-07-29T21:41:08;8.02;;;3.90;;
22622;SDS011;11478;51.094;7.030;2022-07-29T21:43:36;8.75;;;4.00;;
22622;SDS011;11478;51.094;7.030;2022-07-29T21:46:03;6.40;;;3.63;;
22622;SDS011;11478;51.094;7.030;2022-07-29T21:48:31;7.93;;;4.10;;
22622;SDS011;11478;51.094;7.030;2022-07-29T21:50:57;5.30;;;3.80;;
22622;SDS011;11478;51.094;7.030;2022-07-29T21:53:25;6.72;;;3.78;;
22622;SDS011;11478;51.094;7.030;2022-07-29T21:55:51;8.27;;;4.05;;
22622;SDS011;11478;51.094;7.030;2022-07-29T21:58:27;6.28;;;3.70;;
22622;SDS011;11478;51.094;7.030;2022-07-29T22:00:55;6.18;;;3.47;;
22622;SDS011;11478;51.094;7.030;2022-07-29T22:03:21;8.00;;;4.05;;
22622;SDS011;11478;51.094;7.030;2022-07-29T22:05:47;6.80;;;4.10;;
22622;SDS011;11478;51.094;7.030;2022-07-29T22:08:13;7.63;;;3.90;;
22622;SDS011;11478;51.094;7.030;2022-07-29T22:10:39;6.95;;;4.03;;
22622;SDS011;11478;51.094;7.030;2022-07-29T22:13:06;5.28;;;3.35;;
22622;SDS011;11478;51.094;7.030;2022-07-29T22:15:32;7.95;;;3.42;;
22622;SDS011;11478;51.094;7.030;2022-07-29T22:18:04;4.68;;;3.70;;
22622;SDS011;11478;51.094;7.030;2022-07-29T22:20:30;7.25;;;4.00;;
22622;SDS011;11478;51.094;7.030;2022-07-29T22:28:30;5.50;;;3.80;;
22622;SDS011;11478;51.094;7.030;2022-07-29T22:30:58;6.43;;;4.10;;
22622;SDS011;11478;51.094;7.030;2022-07-29T22:33:24;7.68;;;4.00;;
22622;SDS011;11478;51.094;7.030;2022-07-29T22:35:50;8.00;;;3.50;;
22622;SDS011;11478;51.094;7.030;2022-07-29T22:38:16;9.45;;;4.18;;
22622;SDS011;11478;51.094;7.030;2022-07-29T22:40:42;6.70;;;3.97;;
22622;SDS011;11478;51.094;7.030;2022-07-29T22:43:08;6.13;;;3.83;;
22622;SDS011;11478;51.094;7.030;2022-07-29T22:45:34;9.20;;;4.25;;
22622;SDS011;11478;51.094;7.030;2022-07-29T22:48:00;8.02;;;3.97;;
22622;SDS011;11478;51.094;7.030;2022-07-29T22:50:27;6.57;;;4.10;;
22622;SDS011;11478;51.094;7.030;2022-07-29T22:52:53;6.43;;;4.30;;
22622;SDS011;11478;51.094;7.030;2022-07-29T22:55:19;4.70;;;3.78;;
22622;SDS011;11478;51.094;7.030;2022-07-29T22:57:48;7.15;;;3.88;;
22622;SDS011;11478;51.094;7.030;2022-07-29T23:00:14;4.38;;;3.92;;
22622;SDS011;11478;51.094;7.030;2022-07-29T23:02:40;5.45;;;4.20;;
22622;SDS011;11478;51.094;7.030;2022-07-29T23:05:08;7.68;;;4.75;;
22622;SDS011;11478;51.094;7.030;2022-07-29T23:07:34;7.15;;;4.10;;
22622;SDS011;11478;51.094;7.030;2022-07-29T23:10:03;6.82;;;3.90;;
22622;SDS011;11478;51.094;7.030;2022-07-29T23:12:29;6.10;;;4.18;;
22622;SDS011;11478;51.094;7.030;2022-07-29T23:20:06;10.32;;;4.97;;
22622;SDS011;11478;51.094;7.030;2022-07-29T23:22:33;7.82;;;4.80;;
22622;SDS011;11478;51.094;7.030;2022-07-29T23:25:00;10.35;;;4.45;;
22622;SDS011;11478;51.094;7.030;2022-07-29T23:27:25;8.60;;;4.70;;
22622;SDS011;11478;51.094;7.030;2022-07-29T23:29:59;6.50;;;4.50;;
22622;SDS011;11478;51.094;7.030;2022-07-29T23:32:26;7.18;;;4.45;;
22622;SDS011;11478;51.094;7.030;2022-07-29T23:34:52;7.97;;;4.72;;
22622;SDS011;11478;51.094;7.030;2022-07-29T23:37:19;7.03;;;4.53;;
22622;SDS011;11478;51.094;7.030;2022-07-29T23:39:45;7.50;;;4.15;;
22622;SDS011;11478;51.094;7.030;2022-07-29T23:42:11;7.75;;;4.38;;
22622;SDS011;11478;51.094;7.030;2022-07-29T23:44:37;8.93;;;4.75;;
22622;SDS011;11478;51.094;7.030;2022-07-29T23:47:06;9.10;;;4.95;;
22622;SDS011;11478;51.094;7.030;2022-07-29T23:49:32;7.70;;;5.00;;
22622;SDS011;11478;51.094;7.030;2022-07-29T23:51:58;9.88;;;4.90;;
22622;SDS011;11478;51.094;7.030;2022-07-29T23:54:24;6.82;;;4.63;;
22622;SDS011;11478;51.094;7.030;2022-07-29T23:56:50;7.30;;;5.32;;
22622;SDS011;11478;51.094;7.030;2022-07-29T23:59:16;7.35;;;5.20;;
